sensor_id;sensor_type;location;lat;lon;timestamp;temperature;humidity
20483;DHT22;10400;53.198;6.592;2024-02-23T00:00:29;5.80;99.90
20483;DHT22;10400;53.198;6.592;2024-02-23T00:02:55;5.90;99.90
20483;DHT22;10400;53.198;6.592;2024-02-23T00:05:23;5.90;99.90
20483;DHT22;10400;53.198;6.592;2024-02-23T00:07:49;5.90;99.90
20483;DHT22;10400;53.198;6.592;2024-02-23T00:10:15;5.80;99.90
20483;DHT22;10400;53.198;6.592;2024-02-23T00:12:41;5.90;99.90
20483;DHT22;10400;53.198;6.592;2024-02-23T00:15:07;5.90;99.90
20483;DHT22;10400;53.198;6.592;2024-02-23T00:17:33;5.90;99.90
20483;DHT22;10400;53.198;6.592;2024-02-23T00:19:58;6.00;99.90
20483;DHT22;10400;53.198;6.592;2024-02-23T00:22:24;6.00;99.90
20483;DHT22;10400;53.198;6.592;2024-02-23T00:24:51;6.00;99.90
20483;DHT22;10400;53.198;6.592;2024-02-23T00:27:17;6.10;99.90
20483;DHT22;10400;53.198;6.592;2024-02-23T00:29:42;6.10;99.90
20483;DHT22;10400;53.198;6.592;2024-02-23T00:32:09;6.10;99.90
20483;DHT22;10400;53.198;6.592;2024-02-23T00:34:35;6.00;99.90
20483;DHT22;10400;53.198;6.592;2024-02-23T00:37:01;6.00;99.90
20483;DHT22;10400;53.198;6.592;2024-02-23T00:39:27;6.00;99.90
20483;DHT22;10400;53.198;6.592;2024-02-23T00:41:53;6.00;99.90
20483;DHT22;10400;53.198;6.592;2024-02-23T00:44:18;6.00;99.90
20483;DHT22;10400;53.198;6.592;2024-02-23T00:46:44;6.00;99.90
20483;DHT22;10400;53.198;6.592;2024-02-23T00:49:09;6.00;99.90
20483;DHT22;10400;53.198;6.592;2024-02-23T00:51:35;6.00;99.90
20483;DHT22;10400;53.198;6.592;2024-02-23T00:54:01;6.00;99.90
20483;DHT22;10400;53.198;6.592;2024-02-23T00:56:26;6.00;99.90
20483;DHT22;10400;53.198;6.592;2024-02-23T00:58:53;6.00;99.90
20483;DHT22;10400;53.198;6.592;2024-02-23T01:01:18;5.90;99.90
20483;DHT22;10400;53.198;6.592;2024-02-23T01:03:44;5.90;99.90
20483;DHT22;10400;53.198;6.592;2024-02-23T01:06:09;5.90;99.90
20483;DHT22;10400;53.198;6.592;2024-02-23T01:08:35;5.90;99.90
20483;DHT22;10400;53.198;6.592;2024-02-23T01:11:01;5.80;99.90
20483;DHT22;10400;53.198;6.592;2024-02-23T01:13:27;5.70;99.90
20483;DHT22;10400;53.198;6.592;2024-02-23T01:15:52;5.60;99.90
20483;DHT22;10400;53.198;6.592;2024-02-23T01:18:19;5.60;99.90
20483;DHT22;10400;53.198;6.592;2024-02-23T01:20:45;5.60;99.90
20483;DHT22;10400;53.198;6.592;2024-02-23T01:23:11;5.60;99.90
20483;DHT22;10400;53.198;6.592;2024-02-23T01:25:36;5.70;99.90
20483;DHT22;10400;53.198;6.592;2024-02-23T01:28:03;5.80;99.90
20483;DHT22;10400;53.198;6.592;2024-02-23T01:30:29;5.80;99.90
20483;DHT22;10400;53.198;6.592;2024-02-23T01:32:54;5.70;99.90
20483;DHT22;10400;53.198;6.592;2024-02-23T01:35:20;5.70;99.90
20483;DHT22;10400;53.198;6.592;2024-02-23T01:37:46;5.60;99.90
20483;DHT22;10400;53.198;6.592;2024-02-23T01:40:11;5.60;99.90
20483;DHT22;10400;53.198;6.592;2024-02-23T01:42:38;5.60;99.90
20483;DHT22;10400;53.198;6.592;2024-02-23T01:45:03;5.70;99.90
20483;DHT22;10400;53.198;6.592;2024-02-23T01:47:30;5.70;99.90
20483;DHT22;10400;53.198;6.592;2024-02-23T01:49:58;5.70;99.90
20483;DHT22;10400;53.198;6.592;2024-02-23T01:52:24;5.70;99.90
20483;DHT22;10400;53.198;6.592;2024-02-23T01:54:51;5.80;99.90
20483;DHT22;10400;53.198;6.592;2024-02-23T01:57:17;5.70;99.90
20483;DHT22;10400;53.198;6.592;2024-02-23T01:59:43;5.70;99.90
20483;DHT22;10400;53.198;6.592;2024-02-23T02:02:09;5.60;99.90
20483;DHT22;10400;53.198;6.592;2024-02-23T02:04:35;5.70;99.90
20483;DHT22;10400;53.198;6.592;2024-02-23T02:07:01;5.70;99.90
20483;DHT22;10400;53.198;6.592;2024-02-23T02:09:27;5.70;99.90
20483;DHT22;10400;53.198;6.592;2024-02-23T02:11:52;5.80;99.90
20483;DHT22;10400;53.198;6.592;2024-02-23T02:14:18;5.80;99.90
20483;DHT22;10400;53.198;6.592;2024-02-23T02:16:44;5.90;99.90
20483;DHT22;10400;53.198;6.592;2024-02-23T02:19:14;5.90;99.90
20483;DHT22;10400;53.198;6.592;2024-02-23T02:21:40;5.90;99.90
20483;DHT22;10400;53.198;6.592;2024-02-23T02:24:06;5.90;99.90
20483;DHT22;10400;53.198;6.592;2024-02-23T02:26:32;5.90;99.90
20483;DHT22;10400;53.198;6.592;2024-02-23T02:28:58;6.00;99.90
20483;DHT22;10400;53.198;6.592;2024-02-23T02:31:24;6.00;99.90
20483;DHT22;10400;53.198;6.592;2024-02-23T02:33:49;5.90;99.90
20483;DHT22;10400;53.198;6.592;2024-02-23T02:36:15;5.80;99.90
20483;DHT22;10400;53.198;6.592;2024-02-23T02:38:40;5.90;99.90
20483;DHT22;10400;53.198;6.592;2024-02-23T02:41:06;5.90;99.90
20483;DHT22;10400;53.198;6.592;2024-02-23T02:43:32;6.00;99.90
20483;DHT22;10400;53.198;6.592;2024-02-23T02:45:58;6.00;99.90
20483;DHT22;10400;53.198;6.592;2024-02-23T02:48:24;6.10;99.90
20483;DHT22;10400;53.198;6.592;2024-02-23T02:50:50;6.10;99.90
20483;DHT22;10400;53.198;6.592;2024-02-23T02:53:17;6.20;99.90
20483;DHT22;10400;53.198;6.592;2024-02-23T02:55:43;6.20;99.90
20483;DHT22;10400;53.198;6.592;2024-02-23T02:58:12;6.20;99.90
20483;DHT22;10400;53.198;6.592;2024-02-23T03:00:38;6.30;99.90
20483;DHT22;10400;53.198;6.592;2024-02-23T03:03:04;6.30;99.90
20483;DHT22;10400;53.198;6.592;2024-02-23T03:05:30;6.20;99.90
20483;DHT22;10400;53.198;6.592;2024-02-23T03:07:56;6.30;99.90
20483;DHT22;10400;53.198;6.592;2024-02-23T03:10:21;6.30;99.90
20483;DHT22;10400;53.198;6.592;2024-02-23T03:12:47;6.30;99.90
20483;DHT22;10400;53.198;6.592;2024-02-23T03:15:13;6.30;99.90
20483;DHT22;10400;53.198;6.592;2024-02-23T03:17:39;6.30;99.90
20483;DHT22;10400;53.198;6.592;2024-02-23T03:20:05;6.30;99.90
20483;DHT22;10400;53.198;6.592;2024-02-23T03:22:34;6.30;99.90
20483;DHT22;10400;53.198;6.592;2024-02-23T03:25:00;6.30;99.90
20483;DHT22;10400;53.198;6.592;2024-02-23T03:27:28;6.30;99.90
20483;DHT22;10400;53.198;6.592;2024-02-23T03:29:54;6.30;99.90
20483;DHT22;10400;53.198;6.592;2024-02-23T03:32:20;6.30;99.90
20483;DHT22;10400;53.198;6.592;2024-02-23T03:34:46;6.40;99.90
20483;DHT22;10400;53.198;6.592;2024-02-23T03:37:11;6.30;99.90
20483;DHT22;10400;53.198;6.592;2024-02-23T03:39:37;6.30;99.90
20483;DHT22;10400;53.198;6.592;2024-02-23T03:42:03;6.30;99.90
20483;DHT22;10400;53.198;6.592;2024-02-23T03:44:29;6.30;99.90
20483;DHT22;10400;53.198;6.592;2024-02-23T03:46:55;6.30;99.90
20483;DHT22;10400;53.198;6.592;2024-02-23T03:49:20;6.30;99.90
20483;DHT22;10400;53.198;6.592;2024-02-23T03:51:47;6.30;99.90
20483;DHT22;10400;53.198;6.592;2024-02-23T03:54:13;6.30;99.90
20483;DHT22;10400;53.198;6.592;2024-02-23T03:56:39;6.30;99.90
20483;DHT22;10400;53.198;6.592;2024-02-23T03:59:06;6.30;99.90
20483;DHT22;10400;53.198;6.592;2024-02-23T04:01:37;6.30;99.90
20483;DHT22;10400;53.198;6.592;2024-02-23T04:04:04;6.20;99.90
20483;DHT22;10400;53.198;6.592;2024-02-23T04:06:30;6.20;99.90
20483;DHT22;10400;53.198;6.592;2024-02-23T04:08:56;6.20;99.90
20483;DHT22;10400;53.198;6.592;2024-02-23T04:11:21;6.20;99.90
20483;DHT22;10400;53.198;6.592;2024-02-23T04:13:47;6.10;99.90
20483;DHT22;10400;53.198;6.592;2024-02-23T04:16:13;6.10;99.90
20483;DHT22;10400;53.198;6.592;2024-02-23T04:18:38;6.00;99.90
20483;DHT22;10400;53.198;6.592;2024-02-23T04:21:04;6.00;99.90
20483;DHT22;10400;53.198;6.592;2024-02-23T04:23:30;6.00;99.90
20483;DHT22;10400;53.198;6.592;2024-02-23T04:25:56;6.10;99.90
20483;DHT22;10400;53.198;6.592;2024-02-23T04:28:21;6.10;99.90
20483;DHT22;10400;53.198;6.592;2024-02-23T04:30:47;6.10;99.90
20483;DHT22;10400;53.198;6.592;2024-02-23T04:33:13;6.10;99.90
20483;DHT22;10400;53.198;6.592;2024-02-23T04:35:38;6.10;99.90
20483;DHT22;10400;53.198;6.592;2024-02-23T04:38:04;6.00;99.90
20483;DHT22;10400;53.198;6.592;2024-02-23T04:40:29;6.00;99.90
20483;DHT22;10400;53.198;6.592;2024-02-23T04:42:55;6.10;99.90
20483;DHT22;10400;53.198;6.592;2024-02-23T04:45:21;6.00;99.90
20483;DHT22;10400;53.198;6.592;2024-02-23T04:47:46;6.00;99.90
20483;DHT22;10400;53.198;6.592;2024-02-23T04:50:14;6.00;99.90
20483;DHT22;10400;53.198;6.592;2024-02-23T04:52:39;6.00;99.90
20483;DHT22;10400;53.198;6.592;2024-02-23T04:55:05;6.00;99.90
20483;DHT22;10400;53.198;6.592;2024-02-23T04:57:36;6.00;99.90
20483;DHT22;10400;53.198;6.592;2024-02-23T05:00:01;6.00;99.90
20483;DHT22;10400;53.198;6.592;2024-02-23T05:02:27;5.90;99.90
20483;DHT22;10400;53.198;6.592;2024-02-23T05:04:59;5.90;99.90
20483;DHT22;10400;53.198;6.592;2024-02-23T05:07:24;6.00;99.90
20483;DHT22;10400;53.198;6.592;2024-02-23T05:09:50;5.90;99.90
20483;DHT22;10400;53.198;6.592;2024-02-23T05:12:15;5.90;99.90
20483;DHT22;10400;53.198;6.592;2024-02-23T05:14:41;5.90;99.90
20483;DHT22;10400;53.198;6.592;2024-02-23T05:17:07;5.90;99.90
20483;DHT22;10400;53.198;6.592;2024-02-23T05:19:32;5.90;99.90
20483;DHT22;10400;53.198;6.592;2024-02-23T05:21:58;5.80;99.90
20483;DHT22;10400;53.198;6.592;2024-02-23T05:24:23;5.80;99.90
20483;DHT22;10400;53.198;6.592;2024-02-23T05:26:49;5.80;99.90
20483;DHT22;10400;53.198;6.592;2024-02-23T05:29:15;5.80;99.90
20483;DHT22;10400;53.198;6.592;2024-02-23T05:31:48;5.80;99.90
20483;DHT22;10400;53.198;6.592;2024-02-23T05:34:14;5.80;99.90
20483;DHT22;10400;53.198;6.592;2024-02-23T05:36:40;5.70;99.90
20483;DHT22;10400;53.198;6.592;2024-02-23T05:39:06;5.70;99.90
20483;DHT22;10400;53.198;6.592;2024-02-23T05:41:33;5.70;99.90
20483;DHT22;10400;53.198;6.592;2024-02-23T05:43:59;5.70;99.90
20483;DHT22;10400;53.198;6.592;2024-02-23T05:46:24;5.70;99.90
20483;DHT22;10400;53.198;6.592;2024-02-23T05:48:50;5.60;99.90
20483;DHT22;10400;53.198;6.592;2024-02-23T05:51:16;5.60;99.90
20483;DHT22;10400;53.198;6.592;2024-02-23T05:53:41;5.60;99.90
20483;DHT22;10400;53.198;6.592;2024-02-23T05:56:07;5.60;99.90
20483;DHT22;10400;53.198;6.592;2024-02-23T05:58:33;5.60;99.90
20483;DHT22;10400;53.198;6.592;2024-02-23T06:00:58;5.60;99.90
20483;DHT22;10400;53.198;6.592;2024-02-23T06:03:24;5.60;99.90
20483;DHT22;10400;53.198;6.592;2024-02-23T06:05:50;5.60;99.90
20483;DHT22;10400;53.198;6.592;2024-02-23T06:08:15;5.60;99.90
20483;DHT22;10400;53.198;6.592;2024-02-23T06:10:41;5.60;99.90
20483;DHT22;10400;53.198;6.592;2024-02-23T06:13:08;5.60;99.90
20483;DHT22;10400;53.198;6.592;2024-02-23T06:15:34;5.50;99.90
20483;DHT22;10400;53.198;6.592;2024-02-23T06:17:59;5.60;99.90
20483;DHT22;10400;53.198;6.592;2024-02-23T06:20:25;5.60;99.90
20483;DHT22;10400;53.198;6.592;2024-02-23T06:22:50;5.60;99.90
20483;DHT22;10400;53.198;6.592;2024-02-23T06:25:16;5.60;99.90
20483;DHT22;10400;53.198;6.592;2024-02-23T06:27:42;5.60;99.90
20483;DHT22;10400;53.198;6.592;2024-02-23T06:30:08;5.60;99.90
20483;DHT22;10400;53.198;6.592;2024-02-23T06:32:33;5.60;99.90
20483;DHT22;10400;53.198;6.592;2024-02-23T06:34:59;5.60;99.90
20483;DHT22;10400;53.198;6.592;2024-02-23T06:37:25;5.50;99.90
20483;DHT22;10400;53.198;6.592;2024-02-23T06:39:50;5.50;99.90
20483;DHT22;10400;53.198;6.592;2024-02-23T06:42:20;5.50;99.90
20483;DHT22;10400;53.198;6.592;2024-02-23T06:44:46;5.50;99.90
20483;DHT22;10400;53.198;6.592;2024-02-23T06:47:12;5.50;99.90
20483;DHT22;10400;53.198;6.592;2024-02-23T06:49:41;5.50;99.90
20483;DHT22;10400;53.198;6.592;2024-02-23T06:52:08;5.50;99.90
20483;DHT22;10400;53.198;6.592;2024-02-23T06:54:34;5.60;99.90
20483;DHT22;10400;53.198;6.592;2024-02-23T06:57:00;5.60;99.90
20483;DHT22;10400;53.198;6.592;2024-02-23T06:59:25;5.60;99.90
20483;DHT22;10400;53.198;6.592;2024-02-23T07:01:51;5.60;99.90
20483;DHT22;10400;53.198;6.592;2024-02-23T07:04:18;5.70;99.90
20483;DHT22;10400;53.198;6.592;2024-02-23T07:06:44;5.70;99.90
20483;DHT22;10400;53.198;6.592;2024-02-23T07:09:10;5.70;99.90
20483;DHT22;10400;53.198;6.592;2024-02-23T07:11:37;5.80;99.90
20483;DHT22;10400;53.198;6.592;2024-02-23T07:14:03;5.80;99.90
20483;DHT22;10400;53.198;6.592;2024-02-23T07:16:29;5.80;99.90
20483;DHT22;10400;53.198;6.592;2024-02-23T07:18:54;5.80;99.90
20483;DHT22;10400;53.198;6.592;2024-02-23T07:21:20;5.80;99.90
20483;DHT22;10400;53.198;6.592;2024-02-23T07:23:46;5.80;99.90
20483;DHT22;10400;53.198;6.592;2024-02-23T07:26:12;5.80;99.90
20483;DHT22;10400;53.198;6.592;2024-02-23T07:28:37;5.90;99.90
20483;DHT22;10400;53.198;6.592;2024-02-23T07:31:03;6.00;99.90
20483;DHT22;10400;53.198;6.592;2024-02-23T07:33:29;6.00;99.90
20483;DHT22;10400;53.198;6.592;2024-02-23T07:35:54;6.00;99.90
20483;DHT22;10400;53.198;6.592;2024-02-23T07:38:20;6.00;99.90
20483;DHT22;10400;53.198;6.592;2024-02-23T07:40:46;6.00;99.90
20483;DHT22;10400;53.198;6.592;2024-02-23T07:43:11;6.10;99.90
20483;DHT22;10400;53.198;6.592;2024-02-23T07:45:38;6.10;99.90
20483;DHT22;10400;53.198;6.592;2024-02-23T07:48:04;6.20;99.90
20483;DHT22;10400;53.198;6.592;2024-02-23T07:50:30;6.30;99.90
20483;DHT22;10400;53.198;6.592;2024-02-23T07:52:56;6.30;99.90
20483;DHT22;10400;53.198;6.592;2024-02-23T07:55:21;6.30;99.90
20483;DHT22;10400;53.198;6.592;2024-02-23T07:57:47;6.30;99.90
20483;DHT22;10400;53.198;6.592;2024-02-23T08:00:13;6.40;99.90
20483;DHT22;10400;53.198;6.592;2024-02-23T08:02:39;6.40;99.90
20483;DHT22;10400;53.198;6.592;2024-02-23T08:05:06;6.40;99.90
20483;DHT22;10400;53.198;6.592;2024-02-23T08:07:32;6.50;99.90
20483;DHT22;10400;53.198;6.592;2024-02-23T08:09:57;6.40;99.90
20483;DHT22;10400;53.198;6.592;2024-02-23T08:12:23;6.40;99.90
20483;DHT22;10400;53.198;6.592;2024-02-23T08:14:49;6.40;99.90
20483;DHT22;10400;53.198;6.592;2024-02-23T08:17:18;6.40;99.90
20483;DHT22;10400;53.198;6.592;2024-02-23T08:19:44;6.40;99.90
20483;DHT22;10400;53.198;6.592;2024-02-23T08:22:09;6.50;99.90
20483;DHT22;10400;53.198;6.592;2024-02-23T08:24:35;6.50;99.90
20483;DHT22;10400;53.198;6.592;2024-02-23T08:27:01;6.50;99.90
20483;DHT22;10400;53.198;6.592;2024-02-23T08:29:28;6.50;99.90
20483;DHT22;10400;53.198;6.592;2024-02-23T08:31:53;6.50;99.90
20483;DHT22;10400;53.198;6.592;2024-02-23T08:34:19;6.60;99.90
20483;DHT22;10400;53.198;6.592;2024-02-23T08:36:45;6.60;99.90
20483;DHT22;10400;53.198;6.592;2024-02-23T08:39:10;6.60;99.90
20483;DHT22;10400;53.198;6.592;2024-02-23T08:41:36;6.60;99.90
20483;DHT22;10400;53.198;6.592;2024-02-23T08:44:02;6.60;99.90
20483;DHT22;10400;53.198;6.592;2024-02-23T08:46:28;6.60;99.90
20483;DHT22;10400;53.198;6.592;2024-02-23T08:48:53;6.70;99.90
20483;DHT22;10400;53.198;6.592;2024-02-23T08:51:19;6.70;99.90
20483;DHT22;10400;53.198;6.592;2024-02-23T08:53:44;6.70;99.90
20483;DHT22;10400;53.198;6.592;2024-02-23T08:56:11;6.70;99.90
20483;DHT22;10400;53.198;6.592;2024-02-23T08:58:37;6.70;99.90
20483;DHT22;10400;53.198;6.592;2024-02-23T09:01:03;6.70;99.90
20483;DHT22;10400;53.198;6.592;2024-02-23T09:03:30;6.80;99.90
20483;DHT22;10400;53.198;6.592;2024-02-23T09:05:55;6.80;99.90
20483;DHT22;10400;53.198;6.592;2024-02-23T09:08:21;7.00;99.90
20483;DHT22;10400;53.198;6.592;2024-02-23T09:10:47;7.00;99.90
20483;DHT22;10400;53.198;6.592;2024-02-23T09:13:12;7.00;99.90
20483;DHT22;10400;53.198;6.592;2024-02-23T09:15:38;7.10;99.90
20483;DHT22;10400;53.198;6.592;2024-02-23T09:18:04;7.10;99.90
20483;DHT22;10400;53.198;6.592;2024-02-23T09:20:30;7.10;99.90
20483;DHT22;10400;53.198;6.592;2024-02-23T09:22:55;7.10;99.90
20483;DHT22;10400;53.198;6.592;2024-02-23T09:25:21;7.20;99.90
20483;DHT22;10400;53.198;6.592;2024-02-23T09:27:46;7.20;99.90
20483;DHT22;10400;53.198;6.592;2024-02-23T09:30:13;7.20;99.90
20483;DHT22;10400;53.198;6.592;2024-02-23T09:32:39;7.20;99.90
20483;DHT22;10400;53.198;6.592;2024-02-23T09:35:05;7.30;99.90
20483;DHT22;10400;53.198;6.592;2024-02-23T09:37:32;7.30;99.90
20483;DHT22;10400;53.198;6.592;2024-02-23T09:39:57;7.40;99.90
20483;DHT22;10400;53.198;6.592;2024-02-23T09:42:23;7.40;99.90
20483;DHT22;10400;53.198;6.592;2024-02-23T09:44:58;7.50;99.90
20483;DHT22;10400;53.198;6.592;2024-02-23T09:47:27;7.50;99.90
20483;DHT22;10400;53.198;6.592;2024-02-23T09:49:54;7.50;99.90
20483;DHT22;10400;53.198;6.592;2024-02-23T09:52:21;7.50;99.90
20483;DHT22;10400;53.198;6.592;2024-02-23T09:54:47;7.50;99.90
20483;DHT22;10400;53.198;6.592;2024-02-23T09:57:14;7.50;99.90
20483;DHT22;10400;53.198;6.592;2024-02-23T09:59:41;7.50;99.90
20483;DHT22;10400;53.198;6.592;2024-02-23T10:02:11;7.50;99.90
20483;DHT22;10400;53.198;6.592;2024-02-23T10:04:40;7.60;99.90
20483;DHT22;10400;53.198;6.592;2024-02-23T10:07:06;7.80;99.90
20483;DHT22;10400;53.198;6.592;2024-02-23T10:09:32;7.80;99.90
20483;DHT22;10400;53.198;6.592;2024-02-23T10:11:58;7.90;99.90
20483;DHT22;10400;53.198;6.592;2024-02-23T10:14:23;8.00;99.90
20483;DHT22;10400;53.198;6.592;2024-02-23T10:16:49;8.00;99.90
20483;DHT22;10400;53.198;6.592;2024-02-23T10:19:19;8.10;99.90
20483;DHT22;10400;53.198;6.592;2024-02-23T10:21:46;8.20;99.90
20483;DHT22;10400;53.198;6.592;2024-02-23T10:24:11;8.30;99.90
20483;DHT22;10400;53.198;6.592;2024-02-23T10:26:37;8.50;99.90
20483;DHT22;10400;53.198;6.592;2024-02-23T10:29:03;8.40;99.90
20483;DHT22;10400;53.198;6.592;2024-02-23T10:31:32;8.40;99.90
20483;DHT22;10400;53.198;6.592;2024-02-23T10:33:59;8.20;99.90
20483;DHT22;10400;53.198;6.592;2024-02-23T10:36:29;8.20;99.90
20483;DHT22;10400;53.198;6.592;2024-02-23T10:39:00;8.10;99.90
20483;DHT22;10400;53.198;6.592;2024-02-23T10:41:29;8.10;99.90
20483;DHT22;10400;53.198;6.592;2024-02-23T10:43:58;8.10;99.90
20483;DHT22;10400;53.198;6.592;2024-02-23T10:46:25;8.00;99.90
20483;DHT22;10400;53.198;6.592;2024-02-23T10:48:52;8.10;99.90
20483;DHT22;10400;53.198;6.592;2024-02-23T10:51:19;8.10;99.90
20483;DHT22;10400;53.198;6.592;2024-02-23T10:53:46;8.10;99.90
20483;DHT22;10400;53.198;6.592;2024-02-23T10:56:13;7.90;99.90
20483;DHT22;10400;53.198;6.592;2024-02-23T10:58:39;8.00;99.90
20483;DHT22;10400;53.198;6.592;2024-02-23T11:01:07;8.00;99.90
20483;DHT22;10400;53.198;6.592;2024-02-23T11:03:35;8.00;99.90
20483;DHT22;10400;53.198;6.592;2024-02-23T11:06:05;8.00;99.90
20483;DHT22;10400;53.198;6.592;2024-02-23T11:08:33;8.00;99.90
20483;DHT22;10400;53.198;6.592;2024-02-23T11:11:10;7.90;99.90
20483;DHT22;10400;53.198;6.592;2024-02-23T11:13:40;7.90;99.90
20483;DHT22;10400;53.198;6.592;2024-02-23T11:16:07;7.90;99.90
20483;DHT22;10400;53.198;6.592;2024-02-23T11:18:35;7.90;99.90
20483;DHT22;10400;53.198;6.592;2024-02-23T11:21:05;7.90;99.90
20483;DHT22;10400;53.198;6.592;2024-02-23T11:23:44;7.80;99.90
20483;DHT22;10400;53.198;6.592;2024-02-23T11:26:11;7.80;99.90
20483;DHT22;10400;53.198;6.592;2024-02-23T11:28:50;7.80;99.90
20483;DHT22;10400;53.198;6.592;2024-02-23T11:31:24;7.70;99.90
20483;DHT22;10400;53.198;6.592;2024-02-23T11:33:54;7.70;99.90
20483;DHT22;10400;53.198;6.592;2024-02-23T11:36:25;7.50;99.90
20483;DHT22;10400;53.198;6.592;2024-02-23T11:38:53;7.40;99.90
20483;DHT22;10400;53.198;6.592;2024-02-23T11:41:21;7.40;99.90
20483;DHT22;10400;53.198;6.592;2024-02-23T11:43:49;7.40;99.90
20483;DHT22;10400;53.198;6.592;2024-02-23T11:46:16;7.40;99.90
20483;DHT22;10400;53.198;6.592;2024-02-23T11:48:42;7.40;99.90
20483;DHT22;10400;53.198;6.592;2024-02-23T11:51:09;7.40;99.90
20483;DHT22;10400;53.198;6.592;2024-02-23T11:53:36;7.40;99.90
20483;DHT22;10400;53.198;6.592;2024-02-23T11:56:05;7.40;99.90
20483;DHT22;10400;53.198;6.592;2024-02-23T11:58:34;7.50;99.90
20483;DHT22;10400;53.198;6.592;2024-02-23T12:01:03;7.50;99.90
20483;DHT22;10400;53.198;6.592;2024-02-23T12:03:29;7.50;99.90
20483;DHT22;10400;53.198;6.592;2024-02-23T12:06:00;7.50;99.90
20483;DHT22;10400;53.198;6.592;2024-02-23T12:08:26;7.50;99.90
20483;DHT22;10400;53.198;6.592;2024-02-23T12:10:54;7.50;99.90
20483;DHT22;10400;53.198;6.592;2024-02-23T12:13:20;7.50;99.90
20483;DHT22;10400;53.198;6.592;2024-02-23T12:15:47;7.60;99.90
20483;DHT22;10400;53.198;6.592;2024-02-23T12:18:13;7.60;99.90
20483;DHT22;10400;53.198;6.592;2024-02-23T12:20:40;7.60;99.90
20483;DHT22;10400;53.198;6.592;2024-02-23T12:23:05;7.60;99.90
20483;DHT22;10400;53.198;6.592;2024-02-23T12:25:33;7.70;99.90
20483;DHT22;10400;53.198;6.592;2024-02-23T12:27:59;7.70;99.90
20483;DHT22;10400;53.198;6.592;2024-02-23T12:30:26;7.70;99.90
20483;DHT22;10400;53.198;6.592;2024-02-23T12:33:11;7.80;99.90
20483;DHT22;10400;53.198;6.592;2024-02-23T12:35:40;7.80;99.90
20483;DHT22;10400;53.198;6.592;2024-02-23T12:38:06;7.70;99.90
20483;DHT22;10400;53.198;6.592;2024-02-23T12:40:32;7.80;99.90
20483;DHT22;10400;53.198;6.592;2024-02-23T12:42:58;7.80;99.90
20483;DHT22;10400;53.198;6.592;2024-02-23T12:45:23;7.80;99.90
20483;DHT22;10400;53.198;6.592;2024-02-23T12:47:49;7.90;99.90
20483;DHT22;10400;53.198;6.592;2024-02-23T12:50:15;7.90;99.90
20483;DHT22;10400;53.198;6.592;2024-02-23T12:52:40;8.00;99.90
20483;DHT22;10400;53.198;6.592;2024-02-23T12:55:06;8.00;99.90
20483;DHT22;10400;53.198;6.592;2024-02-23T12:57:33;8.10;99.90
20483;DHT22;10400;53.198;6.592;2024-02-23T12:59:59;8.10;99.90
20483;DHT22;10400;53.198;6.592;2024-02-23T13:02:24;8.20;99.90
20483;DHT22;10400;53.198;6.592;2024-02-23T13:04:50;8.20;99.90
20483;DHT22;10400;53.198;6.592;2024-02-23T13:07:16;8.30;99.90
20483;DHT22;10400;53.198;6.592;2024-02-23T13:09:45;8.40;99.90
20483;DHT22;10400;53.198;6.592;2024-02-23T13:12:10;8.40;99.90
20483;DHT22;10400;53.198;6.592;2024-02-23T13:14:36;8.40;99.90
20483;DHT22;10400;53.198;6.592;2024-02-23T13:17:02;8.40;99.90
20483;DHT22;10400;53.198;6.592;2024-02-23T13:19:29;8.30;99.90
20483;DHT22;10400;53.198;6.592;2024-02-23T13:21:54;8.30;99.90
20483;DHT22;10400;53.198;6.592;2024-02-23T13:24:20;8.30;99.90
20483;DHT22;10400;53.198;6.592;2024-02-23T13:26:46;8.30;99.90
20483;DHT22;10400;53.198;6.592;2024-02-23T13:29:11;8.30;99.90
20483;DHT22;10400;53.198;6.592;2024-02-23T13:31:37;8.30;99.90
20483;DHT22;10400;53.198;6.592;2024-02-23T13:34:05;8.40;99.90
20483;DHT22;10400;53.198;6.592;2024-02-23T13:36:32;8.50;99.90
20483;DHT22;10400;53.198;6.592;2024-02-23T13:38:57;8.60;99.90
20483;DHT22;10400;53.198;6.592;2024-02-23T13:41:23;8.50;99.90
20483;DHT22;10400;53.198;6.592;2024-02-23T13:43:49;8.50;99.90
20483;DHT22;10400;53.198;6.592;2024-02-23T13:46:15;8.40;99.90
20483;DHT22;10400;53.198;6.592;2024-02-23T13:48:40;8.40;99.90
20483;DHT22;10400;53.198;6.592;2024-02-23T13:51:06;8.40;99.90
20483;DHT22;10400;53.198;6.592;2024-02-23T13:53:32;8.50;99.90
20483;DHT22;10400;53.198;6.592;2024-02-23T13:55:58;8.40;99.90
20483;DHT22;10400;53.198;6.592;2024-02-23T13:58:26;8.40;99.90
20483;DHT22;10400;53.198;6.592;2024-02-23T14:00:53;8.50;99.90
20483;DHT22;10400;53.198;6.592;2024-02-23T14:03:18;8.60;99.90
20483;DHT22;10400;53.198;6.592;2024-02-23T14:05:44;8.70;99.90
20483;DHT22;10400;53.198;6.592;2024-02-23T14:08:11;8.70;99.90
20483;DHT22;10400;53.198;6.592;2024-02-23T14:10:37;8.80;99.90
20483;DHT22;10400;53.198;6.592;2024-02-23T14:13:03;8.80;99.90
20483;DHT22;10400;53.198;6.592;2024-02-23T14:15:29;8.90;99.90
20483;DHT22;10400;53.198;6.592;2024-02-23T14:17:54;9.10;99.90
20483;DHT22;10400;53.198;6.592;2024-02-23T14:20:20;9.20;99.90
20483;DHT22;10400;53.198;6.592;2024-02-23T14:22:46;9.20;99.90
20483;DHT22;10400;53.198;6.592;2024-02-23T14:25:11;9.20;99.90
20483;DHT22;10400;53.198;6.592;2024-02-23T14:27:38;9.10;99.90
20483;DHT22;10400;53.198;6.592;2024-02-23T14:30:04;9.00;99.90
20483;DHT22;10400;53.198;6.592;2024-02-23T14:32:30;9.00;99.90
20483;DHT22;10400;53.198;6.592;2024-02-23T14:34:56;9.00;99.90
20483;DHT22;10400;53.198;6.592;2024-02-23T14:37:22;9.00;99.90
20483;DHT22;10400;53.198;6.592;2024-02-23T14:39:48;9.20;99.90
20483;DHT22;10400;53.198;6.592;2024-02-23T14:42:14;9.20;99.90
20483;DHT22;10400;53.198;6.592;2024-02-23T14:44:40;9.20;99.90
20483;DHT22;10400;53.198;6.592;2024-02-23T14:47:06;9.10;99.90
20483;DHT22;10400;53.198;6.592;2024-02-23T14:49:32;9.00;99.90
20483;DHT22;10400;53.198;6.592;2024-02-23T14:51:58;8.90;99.90
20483;DHT22;10400;53.198;6.592;2024-02-23T14:54:23;8.80;99.90
20483;DHT22;10400;53.198;6.592;2024-02-23T14:56:49;8.70;99.90
20483;DHT22;10400;53.198;6.592;2024-02-23T14:59:15;8.60;99.90
20483;DHT22;10400;53.198;6.592;2024-02-23T15:01:40;8.50;99.90
20483;DHT22;10400;53.198;6.592;2024-02-23T15:04:07;8.30;99.90
20483;DHT22;10400;53.198;6.592;2024-02-23T15:06:34;8.30;99.90
20483;DHT22;10400;53.198;6.592;2024-02-23T15:09:03;8.30;99.90
20483;DHT22;10400;53.198;6.592;2024-02-23T15:11:29;8.30;99.90
20483;DHT22;10400;53.198;6.592;2024-02-23T15:13:55;8.10;99.90
20483;DHT22;10400;53.198;6.592;2024-02-23T15:16:24;7.80;99.90
20483;DHT22;10400;53.198;6.592;2024-02-23T15:18:50;7.70;99.90
20483;DHT22;10400;53.198;6.592;2024-02-23T15:21:16;7.70;99.90
20483;DHT22;10400;53.198;6.592;2024-02-23T15:23:43;7.60;99.90
20483;DHT22;10400;53.198;6.592;2024-02-23T15:26:10;7.50;99.90
20483;DHT22;10400;53.198;6.592;2024-02-23T15:28:37;7.70;99.90
20483;DHT22;10400;53.198;6.592;2024-02-23T15:31:03;7.70;99.90
20483;DHT22;10400;53.198;6.592;2024-02-23T15:33:28;7.70;99.90
20483;DHT22;10400;53.198;6.592;2024-02-23T15:35:55;7.60;99.90
20483;DHT22;10400;53.198;6.592;2024-02-23T15:38:21;7.60;99.90